Latest Weather Observations for Moorabbin Airport

IDV60901

Issued at 8:51 am EST Monday 15 July 2024 (issued every 10 minutes, with the page automatically refreshed every 10 minutes)

About weather observations | Map of Melbourne area stations | Latest observations for Melbourne area | Other Formats
Station Details ID: 086077 Name: MOORABBIN AIRPORT Lat: -37.98 Lon: 145.10 Height: 12.1 m
Data from the previous 72 hours. | See also: Recent months at Moorabbin Airport
Date/Time
EST
Temp
°C
App
Temp
°C
Dew
Point
°C
Rel
Hum
%
Delta-T
°C
Wind Press
QNH
hPa
Press
MSL
hPa
Rain since
9am
mm
Dir  Spd
km/h
Gust
km/h
Spd
kts
Gust
kts
15/08:30am 8.3 3.8 6.9 91 0.7 WNW 20 32 11 17 1007.5 1007.5 9.0
15/08:00am 7.9 3.6 6.8 93 0.5 W 19 33 10 18 1007.9 1007.9 9.0
15/07:30am 7.9 3.4 6.8 93 0.5 W 20 32 11 17 1008.0 1008.0 8.8
15/07:00am 7.9 3.4 6.8 93 0.5 WNW 20 28 11 15 1008.1 1008.1 8.8
15/06:30am 7.7 3.2 6.8 94 0.4 WNW 20 33 11 18 1008.2 1008.2 8.8
15/06:00am 7.7 3.7 6.8 94 0.4 W 17 26 9 14 1008.3 1008.3 8.6
15/05:31am 7.8 3.5 6.9 94 0.4 W 19 30 10 16 1008.4 1008.4 8.4
15/05:30am 7.8 3.5 6.9 94 0.4 W 19 28 10 15 1008.4 1008.4 8.4
15/05:00am 8.0 3.5 7.1 94 0.4 W 20 33 11 18 1008.5 1008.5 7.8
15/04:58am 8.1 3.8 7.2 94 0.4 W 19 30 10 16 1008.6 1008.6 7.6
15/04:45am 8.1 3.3 7.2 94 0.4 W 22 35 12 19 1008.8 1008.8 7.4
15/04:38am 8.1 3.3 7.2 94 0.4 W 22 35 12 19 1008.7 1008.7 7.4
15/04:30am 8.0 3.7 7.1 94 0.4 W 19 28 10 15 1008.7 1008.7 7.4
15/04:19am 8.1 2.9 7.2 94 0.4 W 24 33 13 18 1008.8 1008.8 7.4
15/04:00am 8.3 4.0 7.2 93 0.5 W 19 32 10 17 1009.0 1009.0 7.2
15/03:30am 8.2 3.7 7.0 92 0.6 W 20 33 11 18 1009.3 1009.3 6.6
15/03:00am 8.3 4.0 6.9 91 0.7 W 19 28 10 15 1009.4 1009.4 5.8
15/02:30am 8.4 4.5 7.2 92 0.6 W 17 24 9 13 1009.7 1009.7 5.6
15/02:00am 8.5 4.0 7.1 91 0.7 W 20 30 11 16 1009.8 1009.8 5.2
15/01:30am 8.4 4.2 7.3 93 0.5 W 19 33 10 18 1009.9 1009.9 5.0
15/01:00am 8.5 4.1 7.3 92 0.6 W 20 30 11 16 1010.2 1010.2 4.6
15/12:30am 8.6 4.2 7.4 92 0.6 W 20 30 11 16 1010.6 1010.6 4.2
15/12:00am 8.3 4.4 7.2 93 0.5 WNW 17 28 9 15 1011.0 1011.0 3.4
 
Date/Time
EST
Temp
°C
App
Temp
°C
Dew
Point
°C
Rel
Hum
%
Delta-T
°C
Wind Press
QNH
hPa
Press
MSL
hPa
Rain since
9am
mm
Dir  Spd
km/h
Gust
km/h
Spd
kts
Gust
kts
14/11:51pm 8.4 4.2 7.3 93 0.5 W 19 28 10 15 1011.1 1011.1 3.4
14/11:35pm 8.6 4.8 7.4 92 0.6 W 17 33 9 18 1011.3 1011.3 3.4
14/11:30pm 8.6 5.1 7.2 91 0.7 W 15 22 8 12 1011.4 1011.4 3.2
14/11:00pm 8.7 4.8 7.3 91 0.7 W 17 26 9 14 1011.6 1011.6 3.2
14/10:30pm 8.6 4.7 7.1 90 0.7 W 17 26 9 14 1012.0 1012.0 3.0
14/10:00pm 8.7 4.5 7.3 91 0.7 W 19 26 10 14 1012.2 1012.2 3.0
14/09:30pm 8.8 4.9 7.1 89 0.8 W 17 28 9 15 1012.4 1012.4 2.8
14/09:00pm 8.9 4.3 6.7 86 1.0 WSW 20 33 11 18 1012.6 1012.6 2.6
14/08:30pm 9.5 5.9 6.6 82 1.4 WSW 15 26 8 14 1012.7 1012.7 2.2
14/08:00pm 9.8 5.8 6.5 80 1.5 SW 17 32 9 17 1012.8 1012.8 2.2
14/07:30pm 9.6 5.2 4.8 72 2.1 SW 17 33 9 18 1012.8 1012.8 2.0
14/07:00pm 10.3 5.4 5.1 70 2.4 SW 20 33 11 18 1013.0 1013.0 1.8
14/06:30pm 9.6 5.8 5.6 76 1.8 SSW 15 24 8 13 1012.9 1012.9 1.8
14/06:00pm 10.2 5.5 5.0 70 2.3 SW 19 26 10 14 1012.9 1012.9 1.8
14/05:30pm 9.4 5.6 5.6 77 1.7 SSW 15 24 8 13 1013.0 1013.0 1.8
14/05:00pm 9.7 4.8 4.9 72 2.2 SW 20 32 11 17 1013.1 1013.1 1.6
14/04:30pm 10.8 5.6 3.8 62 3.1 SW 20 28 11 15 1013.2 1013.2 1.6
14/04:00pm 10.8 5.4 4.3 64 2.9 SW 22 32 12 17 1013.2 1013.2 1.6
14/03:30pm 11.1 5.5 3.6 60 3.3 SW 22 32 12 17 1013.3 1013.3 1.6
14/03:00pm 11.0 5.2 4.5 64 2.9 SW 24 37 13 20 1013.2 1013.2 1.6
14/02:30pm 10.4 6.1 5.2 70 2.4 SW 17 28 9 15 1013.4 1013.4 1.6
14/02:00pm 11.3 6.6 6.2 71 2.4 SW 20 35 11 19 1013.4 1013.4 1.6
14/01:30pm 11.2 6.7 6.9 75 2.0 WSW 20 30 11 16 1013.5 1013.5 1.6
14/01:00pm 10.8 6.3 7.1 78 1.8 WSW 20 32 11 17 1013.7 1013.7 1.6
14/12:30pm 10.6 7.1 7.1 79 1.7 SSW 15 24 8 13 1014.2 1014.2 1.6
14/12:00pm 10.2 5.6 6.5 78 1.7 SSW 20 30 11 16 1014.7 1014.7 1.4
14/11:30am 9.4 5.6 7.7 89 0.8 WSW 17 28 9 15 1015.1 1015.1 1.4
14/11:00am 9.6 6.1 7.4 86 1.0 W 15 32 8 17 1015.5 1015.5 1.2
14/10:30am 9.5 5.7 7.6 88 0.9 W 17 28 9 15 1015.7 1015.7 1.2
14/10:00am 8.8 5.4 7.6 92 0.6 W 15 24 8 13 1015.8 1015.8 1.2
14/09:30am 8.1 4.6 7.2 94 0.4 WNW 15 20 8 11 1015.8 1015.8 1.2
14/09:24am 7.8 4.6 6.9 94 0.4 W 13 17 7 9 1015.8 1015.8 1.2
14/09:00am 7.9 3.5 6.7 92 0.6 WSW 19 30 10 16 1016.0 1016.0 3.2
14/08:56am 8.0 3.6 6.6 91 0.6 WSW 19 30 10 16 1016.0 1016.0 3.0
14/08:30am 7.6 4.3 6.5 93 0.5 W 13 19 7 10 1015.7 1015.7 1.8
14/08:00am 7.8 3.8 6.7 93 0.5 W 17 26 9 14 1015.7 1015.7 1.6
14/07:50am 7.8 4.2 6.9 94 0.4 W 15 20 8 11 1015.7 1015.7 1.6
14/07:34am 7.9 3.9 6.8 93 0.5 W 17 28 9 15 1015.8 1015.8 1.4
14/07:30am 7.8 4.6 6.7 93 0.5 W 13 26 7 14 1015.8 1015.8 1.2
14/07:00am 7.9 3.9 6.5 91 0.6 W 17 24 9 13 1015.7 1015.7 1.2
14/06:30am 8.4 4.3 6.4 87 0.9 WSW 17 28 9 15 1015.5 1015.5 1.2
14/06:01am 7.9 4.2 6.5 91 0.6 W 15 24 8 13 1015.4 1015.4 1.2
14/06:00am 7.9 4.2 6.5 91 0.6 W 15 24 8 13 1015.4 1015.4 1.2
14/05:30am 8.1 4.6 7.2 94 0.4 W 15 24 8 13 1015.3 1015.3 1.2
14/05:00am 7.7 4.4 6.6 93 0.5 WNW 13 20 7 11 1015.1 1015.1 1.2
14/04:57am 7.7 4.4 6.6 93 0.5 WNW 13 20 7 11 1015.1 1015.1 1.2
14/04:30am 8.3 4.7 6.9 91 0.7 W 15 22 8 12 1015.2 1015.2 1.2
14/04:00am 8.4 5.2 7.0 91 0.7 W 13 20 7 11 1015.4 1015.4 1.2
14/03:30am 8.4 5.3 7.2 92 0.6 W 13 19 7 10 1015.5 1015.5 1.2
14/03:22am 8.5 5.0 7.3 92 0.6 W 15 26 8 14 1015.5 1015.5 1.2
14/03:03am 8.8 5.8 7.6 92 0.6 W 13 20 7 11 1015.6 1015.6 1.2
14/03:00am 8.7 5.7 7.5 92 0.6 W 13 20 7 11 1015.7 1015.7 1.2
14/02:30am 8.7 6.0 7.3 91 0.7 W 11 19 6 10 1015.7 1015.7 1.2
14/02:00am 8.5 5.7 7.1 91 0.7 W 11 17 6 9 1015.7 1015.7 1.2
14/01:30am 8.5 5.4 7.4 93 0.5 W 13 20 7 11 1015.7 1015.7 1.2
14/01:00am 8.5 6.2 7.4 93 0.5 WNW 9 13 5 7 1015.6 1015.6 1.0
14/12:30am 8.4 6.1 7.3 93 0.5 W 9 11 5 6 1015.9 1015.9 1.0
14/12:00am 8.8 6.9 7.6 92 0.6 WNW 7 9 4 5 1016.1 1016.1 1.0
 
Date/Time
EST
Temp
°C
App
Temp
°C
Dew
Point
°C
Rel
Hum
%
Delta-T
°C
Wind Press
QNH
hPa
Press
MSL
hPa
Rain since
9am
mm
Dir  Spd
km/h
Gust
km/h
Spd
kts
Gust
kts
13/11:30pm 9.4 7.2 8.0 91 0.7 W 9 17 5 9 1016.4 1016.4 1.0
13/11:00pm 9.1 7.4 7.5 90 0.8 WNW 6 7 3 4 1016.6 1016.6 0.8
13/10:30pm 9.1 7.4 7.5 90 0.8 WSW 6 7 3 4 1016.8 1016.8 0.8
13/10:00pm 9.2 6.2 7.8 91 0.7 S 13 20 7 11 1016.9 1016.9 0.6
13/09:30pm 9.0 7.4 7.9 93 0.5 WNW 6 7 3 4 1016.8 1016.8 0.6
13/09:00pm 9.3 7.2 8.1 92 0.6 WSW 9 13 5 7 1017.0 1017.1 0.6
13/08:59pm 9.3 7.2 8.1 92 0.6 WSW 9 13 5 7 1017.0 1017.1 0.6
13/08:44pm 9.5 6.5 7.9 90 0.8 SW 13 17 7 9 1017.1 1017.2 0.6
13/08:30pm 9.6 7.4 7.9 89 0.8 W 9 15 5 8 1016.9 1016.9 0.0
13/08:00pm 9.6 7.9 7.7 88 0.9 S 6 7 3 4 1016.9 1016.9 0.0
13/07:30pm 9.8 7.6 7.9 88 0.9 S 9 15 5 8 1016.9 1016.9 0.0
13/07:00pm 10.3 8.1 7.9 85 1.2 SSW 9 13 5 7 1016.9 1016.9 0.0
13/06:30pm 9.8 7.8 7.1 83 1.3 SSE 7 9 4 5 1016.6 1016.6 0.0
13/06:00pm 10.7 7.7 7.6 81 1.5 S 13 19 7 10 1016.5 1016.5 0.0
13/05:30pm 10.4 8.4 7.1 80 1.6 SW 7 11 4 6 1016.3 1016.3 0.0
13/05:00pm 10.8 8.0 7.1 78 1.8 SSW 11 17 6 9 1016.1 1016.1 0.0
13/04:30pm 10.9 8.6 7.6 80 1.6 SW 9 13 5 7 1016.2 1016.2 0.0
13/04:00pm 12.1 9.8 7.4 73 2.3 SW 9 15 5 8 1016.2 1016.2 0.0
13/03:30pm 11.9 9.3 7.6 75 2.1 SSW 11 17 6 9 1016.0 1016.0 0.0
13/03:00pm 11.3 9.1 7.8 79 1.7 WSW 9 17 5 9 1016.2 1016.2 0.0
13/02:30pm 11.2 8.2 7.7 79 1.7 WSW 13 19 7 10 1016.0 1016.0 0.0
13/02:00pm 11.6 8.4 8.3 80 1.6 WSW 15 20 8 11 1016.0 1016.0 0.0
13/01:30pm 11.9 7.8 8.0 77 1.9 WSW 19 24 10 13 1016.1 1016.1 0.0
13/01:00pm 12.2 8.5 8.1 76 2.0 WSW 17 22 9 12 1016.2 1016.2 0.0
13/12:30pm 11.9 8.3 8.4 79 1.7 W 17 24 9 13 1016.5 1016.5 0.0
13/12:00pm 12.0 8.9 8.7 80 1.6 W 15 20 8 11 1016.9 1016.9 0.0
13/11:30am 11.1 7.1 8.1 82 1.5 W 19 26 10 14 1017.3 1017.4 0.0
13/11:00am 11.4 8.3 8.8 84 1.3 W 15 20 8 11 1017.5 1017.6 0.0
13/10:58am 11.3 8.2 8.7 84 1.3 W 15 20 8 11 1017.5 1017.6 0.0
13/10:30am 10.8 7.3 8.9 88 0.9 WNW 17 20 9 11 1017.6 1017.7 0.0
13/10:00am 10.3 6.2 8.6 89 0.8 W 20 28 11 15 1017.6 1017.7 0.0
13/09:30am 10.2 7.5 8.8 91 0.7 WNW 13 22 7 12 1017.3 1017.4 0.0
13/09:00am 9.7 7.3 8.8 94 0.4 WNW 11 15 6 8 1017.2 1017.3 0.4
13/08:30am 9.6 8.1 9.1 97 0.2 NW 7 11 4 6 1017.0 1017.1 0.4
13/08:23am 9.4 7.5 8.9 97 0.2 NW 9 11 5 6 1016.9 1016.9 0.4
13/08:16am 9.2 7.2 8.7 97 0.2 NNW 9 9 5 5 1016.9 1016.9 0.4
13/08:00am 9.4 7.8 8.9 97 0.2 NNW 7 9 4 5 1016.8 1016.8 0.4
13/07:30am 9.2 7.6 8.7 97 0.2 NNW 7 11 4 6 1016.7 1016.7 0.4
13/07:14am 9.0 7.4 8.6 97 0.2 NW 7 9 4 5 1016.6 1016.6 0.4
13/07:08am 8.9 6.9 8.5 97 0.2 NW 9 11 5 6 1016.6 1016.6 0.4
13/07:05am 8.9 6.9 8.5 97 0.2 NNW 9 11 5 6 1016.7 1016.7 0.4
13/07:00am 8.9 6.5 8.5 97 0.2 N 11 11 6 6 1016.6 1016.6 0.4
13/06:41am 9.0 6.9 8.4 96 0.3 N 9 11 5 6 1016.5 1016.5 0.2
13/06:36am 9.0 6.9 8.4 96 0.3 N 9 9 5 5 1016.4 1016.4 0.2
13/06:30am 9.1 7.4 8.5 96 0.3 NNW 7 9 4 5 1016.4 1016.4 0.2
13/06:21am 9.1 7.1 8.5 96 0.3 NNW 9 11 5 6 1016.3 1016.3 0.2
13/06:00am 9.1 7.1 8.5 96 0.3 NNW 9 11 5 6 1016.2 1016.2 0.2
13/05:48am 9.1 7.4 8.5 96 0.3 NNW 7 9 4 5 1016.1 1016.1 0.2
13/05:30am 9.1 7.4 8.5 96 0.3 N 7 9 4 5 1016.1 1016.1 0.2
13/05:24am 9.2 7.6 8.6 96 0.3 NNW 7 9 4 5 1016.1 1016.1 0.2
13/05:05am 9.1 7.0 8.3 95 0.4 NW 9 13 5 7 1016.0 1016.0 0.2
13/05:00am 9.1 7.0 8.3 95 0.4 NW 9 13 5 7 1016.0 1016.0 0.2
13/04:30am 9.0 6.0 7.9 93 0.5 NNW 13 15 7 8 1015.9 1015.9 0.2
13/04:16am 9.0 6.0 7.8 92 0.6 NNW 13 17 7 9 1015.9 1015.9 0.0
13/04:06am 9.1 6.5 7.9 92 0.6 NNW 11 13 6 7 1015.9 1015.9 0.0
13/04:00am 9.1 6.5 7.7 91 0.7 NNW 11 13 6 7 1015.9 1015.9 0.0
13/03:30am 9.1 6.8 7.4 89 0.8 NNW 9 13 5 7 1015.9 1015.9 0.0
13/03:00am 9.4 7.1 7.3 87 1.0 NW 9 13 5 7 1015.9 1015.9 0.0
13/02:30am 9.5 6.4 7.4 87 1.0 N 13 15 7 8 1015.6 1015.6 0.0
13/02:00am 9.5 6.0 7.4 87 1.0 NNW 15 17 8 9 1015.6 1015.6 0.0
13/01:30am 9.4 7.1 7.5 88 0.9 N 9 13 5 7 1015.7 1015.7 0.0
13/01:00am 9.3 7.3 7.3 87 0.9 NNW 7 9 4 5 1015.7 1015.7 0.0
13/12:30am 9.2 6.5 7.5 89 0.8 N 11 15 6 8 1015.6 1015.6 0.0
13/12:00am 9.0 6.6 6.8 86 1.0 N 9 15 5 8 1015.7 1015.7 0.0
 
Date/Time
EST
Temp
°C
App
Temp
°C
Dew
Point
°C
Rel
Hum
%
Delta-T
°C
Wind Press
QNH
hPa
Press
MSL
hPa
Rain since
9am
mm
Dir  Spd
km/h
Gust
km/h
Spd
kts
Gust
kts
12/11:30pm 9.7 7.0 7.5 86 1.0 N 11 13 6 7 1015.7 1015.7 0.0
12/11:00pm 9.9 7.0 8.2 89 0.8 N 13 15 7 8 1015.7 1015.7 0.0
12/10:30pm 9.4 6.9 8.3 93 0.5 N 11 13 6 7 1015.6 1015.6 0.0
12/10:00pm 8.6 6.4 7.7 94 0.4 N 9 11 5 6 1015.6 1015.6 0.0
12/09:30pm 8.4 5.7 7.5 94 0.4 N 11 13 6 7 1015.5 1015.5 0.0
12/09:00pm 8.5 6.2 7.6 94 0.4 N 9 11 5 6 1015.5 1015.5 0.0
12/08:30pm 9.5 7.8 8.3 92 0.6 N 7 9 4 5 1015.4 1015.4 0.0
12/08:00pm 9.6 7.7 7.7 88 0.9 NNW 7 9 4 5 1015.1 1015.1 0.0
12/07:30pm 9.9 8.0 7.7 86 1.1 N 7 11 4 6 1015.0 1015.0 0.0
12/07:00pm 10.0 7.8 7.9 87 1.0 N 9 11 5 6 1014.9 1014.9 0.0
12/06:30pm 9.9 8.1 7.8 87 1.0 N 7 9 4 5 1014.8 1014.8 0.0
12/06:00pm 10.1 9.5 7.3 83 1.3 CALM 0 0 0 0 1014.6 1014.6 0.0
12/05:30pm 10.9 10.3 7.2 78 1.8 CALM 0 0 0 0 1014.3 1014.3 0.0
12/05:00pm 12.5 10.6 7.6 72 2.4 SSW 7 9 4 5 1014.2 1014.2 0.0
12/04:30pm 14.0 13.3 6.8 62 3.5 CALM 0 0 0 0 1014.0 1014.0 0.0
12/04:00pm 14.3 12.8 8.3 67 3.0 W 6 7 3 4 1014.1 1014.1 0.0
12/03:30pm 14.0 12.3 8.2 68 2.9 WSW 7 9 4 5 1014.1 1014.1 0.0
12/03:00pm 13.8 12.2 8.8 72 2.5 SW 7 9 4 5 1014.1 1014.1 0.0
12/02:30pm 13.4 11.5 9.1 75 2.2 SSW 9 22 5 12 1013.9 1013.9 0.0
12/02:00pm 13.3 10.9 8.8 74 2.3 WSW 11 15 6 8 1014.0 1014.0 0.0
12/01:30pm 13.7 11.4 9.0 73 2.4 W 11 17 6 9 1014.1 1014.1 0.0
12/01:00pm 13.9 11.3 9.3 74 2.3 NW 13 19 7 10 1014.2 1014.2 0.0
12/12:30pm 12.8 10.4 8.5 75 2.1 W 11 17 6 9 1014.5 1014.5 0.0
12/12:00pm 12.6 10.6 10.0 84 1.3 NW 11 15 6 8 1015.0 1015.0 0.0
12/11:30am 12.1 10.4 9.7 85 1.2 WNW 9 13 5 7 1015.5 1015.5 0.0
12/11:08am 11.6 9.9 10.0 90 0.8 WNW 9 11 5 6 1015.6 1015.6 0.0
12/11:00am 11.5 9.9 10.1 91 0.7 WNW 9 13 5 7 1015.6 1015.6 0.0
12/10:30am 11.5 9.5 10.2 92 0.7 NW 11 13 6 7 1015.8 1015.8 0.0
12/10:00am 10.9 8.9 10.0 94 0.5 NNW 11 17 6 9 1015.6 1015.6 0.0
12/09:55am 10.9 8.9 10.1 95 0.4 NNW 11 15 6 8 1015.6 1015.6 0.0
12/09:44am 10.8 8.4 9.9 94 0.5 NNW 13 19 7 10 1015.6 1015.6 0.0
12/09:30am 10.9 8.6 10.3 96 0.3 NNW 13 17 7 9 1015.4 1015.4 0.0
12/09:00am 10.3 7.8 9.7 96 0.3 NNW 13 17 7 9 1015.1 1015.1 5.4

Latest Capital City Observations: Canberra | Sydney | Melbourne | Brisbane | Adelaide | Perth | Hobart | Darwin

Other formats

Comma delimited format used in spreadsheet applications
http://www.bom.gov.au/fwo/IDV60901/IDV60901.94870.axf

JavaScript Object Notation format (JSON) in row-major order
http://www.bom.gov.au/fwo/IDV60901/IDV60901.94870.json

Data quality

Most of these data are generated automatically and are frequently updated. Quality checks on data are not normally performed. It is possible for incorrect values to appear. Refer to information at About Latest Weather Observations and please check the disclaimer before using these data.